ADDS METAR Data INFO
IDs: Format: Raw Decoded Include TAF

Data at: 1019 UTC 12 Dec 2017

KPNS 120953Z AUTO 25011KT 10SM CLR 12/07 A3000 RMK AO2 SLP161 T01170072
KPNS 120853Z AUTO 26010KT 10SM CLR 12/07 A3002 RMK AO2 SLP167 T01170072 56015
KPNS 120753Z AUTO 26009KT 10SM CLR 12/07 A3003 RMK AO2 SLP171 T01170072
KPNS 120653Z AUTO 26011KT 10SM CLR 12/09 A3005 RMK AO2 SLP177 T01220089
KPNS 120553Z AUTO 24007KT 10SM CLR 12/09 A3006 RMK AO2 SLP182 T01170089 10122 20100 401830028 58016
KPNS 120453Z 25006KT 10SM CLR 12/08 A3009 RMK AO2 SLP192 T01170078
KPNS 120353Z 26005KT 10SM CLR 12/07 A3011 RMK AO2 SLP197 T01170072
KPNS 120253Z 24007KT 10SM CLR 12/07 A3011 RMK AO2 SLP199 T01170072 56008
KPNS 120153Z 24006KT 10SM CLR 11/07 A3011 RMK AO2 SLP199 T01110067
KPNS 120053Z 23005KT 10SM CLR 12/07 A3012 RMK AO2 SLP204 T01170067
KPNS 112353Z 23006KT 10SM CLR 12/06 A3013 RMK AO2 SLP207 T01220061 10183 20122 55006
KPNS 112253Z 22006KT 10SM CLR 14/06 A3013 RMK AO2 SLP205 T01390056
KPNS 112153Z 24009KT 10SM CLR 17/03 A3014 RMK AO2 SLP208 T01720033
KPNS 112053Z 25011KT 10SM CLR 18/02 A3015 RMK AO2 SLP211 T01780022 56023
KPNS 111953Z 26010KT 10SM CLR 18/02 A3016 RMK AO2 SLP215 T01830022
KPNS 111853Z 26008KT 10SM CLR 18/03 A3018 RMK AO2 PK WND 32027/1807 SLP222 T01830028
KPNS 111753Z 24010KT 10SM CLR 17/03 A3022 RMK AO2 SLP234 T01720033 10172 20028 58027
KPNS 111653Z 24006KT 10SM CLR 16/03 A3026 RMK AO2 SLP249 T01560033
KPNS 111553Z 27009KT 10SM CLR 14/02 A3028 RMK AO2 SLP256 T01390022
KPNS 111453Z 26005KT 10SM CLR 12/03 A3030 RMK AO2 SLP263 T01170033 51003
KPNS 111353Z 27004KT 10SM CLR 08/05 A3030 RMK AO2 SLP263 T00830050
KPNS 111253Z 28004KT 7SM CLR 04/03 A3030 RMK AO2 SLP263 T00440028
KPNS 111153Z 00000KT 7SM CLR 03/02 A3029 RMK AO2 SLP260 T00330017 10067 20033 55003
KPNS 111053Z 00000KT 8SM CLR 04/03 A3028 RMK AO2 SLP256 T00440028
KPNS 110953Z 23003KT 10SM CLR 05/03 A3029 RMK AO2 SLP261 T00500033
KPNS 110853Z 28004KT 10SM CLR 06/03 A3030 RMK AO2 SLP263 T00610033 55004
KPNS 110753Z 29005KT 10SM CLR 07/03 A3030 RMK AO2 SLP262 T00670033
KPNS 110653Z 31006KT 10SM CLR 06/03 A3029 RMK AO2 SLP261 T00560028
KPNS 110553Z 31004KT 10SM CLR 07/03 A3031 RMK AO2 SLP267 T00670028 10089 20056 401330000 58006
KPNS 110453Z 32005KT 10SM CLR 06/02 A3033 RMK AO2 SLP275 T00610022
KPNS 110353Z 28004KT 10SM CLR 07/02 A3034 RMK AO2 SLP277 T00670022
KPNS 110253Z 25003KT 10SM CLR 07/02 A3033 RMK AO2 SLP273 T00670022 50002
KPNS 110153Z 00000KT 10SM CLR 07/01 A3033 RMK AO2 SLP274 T00720006
KPNS 110053Z 26005KT 10SM CLR 08/01 A3034 RMK AO2 SLP276 T00780006
KPNS 102353Z 25008KT 10SM CLR 09/01 A3032 RMK AO2 SLP271 T00890011 10133 20078 53002
KPNS 102253Z 21003KT 10SM CLR 09/02 A3031 RMK AO2 SLP267 T00940017